Yellow Mule RAWS (NWS)

Jump to table bottom
Date/Time Wind Direction Wind Speed knots Wind Gust knots RH % Accumulated Precip Inches Air Temp Fahrenheit
2022-12-10 02:04 SSE 8 11 83 13.72 4
2022-12-10 01:04 SE 8 15 83 13.72 4
2022-12-10 00:04 SSE 10 14 84 13.72 5
2022-12-09 23:04 S 8 17 83 13.72 5
2022-12-09 22:04 S 12 19 85 13.72 7
2022-12-09 21:04 S 13 23 85 13.72 7
2022-12-09 20:04 S 10 15 85 13.72 8
2022-12-09 19:04 SSW 9 14 86 13.72 9
2022-12-09 18:04 SSW 12 18 87 13.72 11
2022-12-09 17:04 SSW 7 15 87 13.72 11
2022-12-09 16:04 SSW 12 19 87 13.72 12
2022-12-09 15:04 SSW 6 10 87 13.72 13
2022-12-09 14:04 SSW 6 12 86 13.72 14
2022-12-09 13:04 SSW 8 11 87 13.72 13
2022-12-09 12:04 SSW 6 10 87 13.72 13
2022-12-09 11:04 S 4 6 86 13.72 12
2022-12-09 10:04 S 4 5 87 13.72 11
2022-12-09 09:04 S 4 5 86 13.72 10
2022-12-09 08:04 SSE 4 7 87 13.72 10
2022-12-09 07:04 SSE 5 9 86 13.72 10
2022-12-09 06:04 SSE 6 8 86 13.72 9
2022-12-09 05:04 SSE 7 9 85 13.72 8
2022-12-09 04:04 SSE 6 10 85 13.72 8
2022-12-09 03:04 SSE 6 10 85 13.72 7
2022-12-09 02:04 SSE 6 9 84 13.72 6
2022-12-09 01:04 SSE 6 11 84 13.72 6
2022-12-09 00:04 SSE 9 12 84 13.72 5
2022-12-08 23:04 SE 6 11 84 13.72 5
2022-12-08 22:04 SSE 6 11 84 13.72 5
2022-12-08 21:04 SSE 8 11 85 13.72 5
2022-12-08 20:04 SSE 7 10 85 13.72 5
2022-12-08 19:04 SSE 8 12 85 13.72 5
2022-12-08 18:04 SSE 9 16 85 13.72 6
2022-12-08 17:04 SE 8 13 86 13.72 6
2022-12-08 16:04 SSE 12 17 74 13.72 10
2022-12-08 15:04 SSE 11 17 68 13.72 14
2022-12-08 14:04 SSE 11 17 69 13.72 14
2022-12-08 13:04 SSE 10 15 70 13.72 14
2022-12-08 12:04 S 10 14 75 13.72 12
2022-12-08 11:04 S 9 13 74 13.72 13
2022-12-08 10:04 S 9 10 79 13.72 10
2022-12-08 09:04 S 6 8 83 13.72 6
2022-12-08 08:04 S 6 9 84 13.72 5
2022-12-08 07:04 S 5 11 88 13.72 3
2022-12-08 06:04 S 6 11 80 13.72 7
2022-12-08 05:04 S 4 7 76 13.72 8
2022-12-08 04:04 S 4 6 74 13.72 8
2022-12-08 03:04 SSW 4 9 76 13.72 8
2022-12-08 02:04 S 6 9 68 13.72 10
2022-12-08 01:04 SSW 10 12 61 13.72 13